sensor_id;sensor_type;location;lat;lon;timestamp;pressure;altitude;pressure_sealevel;temperature;humidity
141;BME280;65;48.778;9.160;2023-03-12T00:01:23;98199.19;;;-0.95;80.44
141;BME280;65;48.778;9.160;2023-03-12T00:04:09;98191.47;;;-1.00;80.98
141;BME280;65;48.778;9.160;2023-03-12T00:06:55;98200.13;;;-0.99;80.45
141;BME280;65;48.778;9.160;2023-03-12T00:09:41;98200.97;;;-0.99;81.03
141;BME280;65;48.778;9.160;2023-03-12T00:12:26;98201.84;;;-1.00;81.67
141;BME280;65;48.778;9.160;2023-03-12T00:15:12;98200.19;;;-1.04;80.80
141;BME280;65;48.778;9.160;2023-03-12T00:17:58;98206.31;;;-1.08;81.58
141;BME280;65;48.778;9.160;2023-03-12T00:21:02;98205.53;;;-1.13;81.55
141;BME280;65;48.778;9.160;2023-03-12T00:23:48;98197.81;;;-1.17;81.12
141;BME280;65;48.778;9.160;2023-03-12T00:26:34;98209.97;;;-1.21;81.23
141;BME280;65;48.778;9.160;2023-03-12T00:29:20;98200.53;;;-1.25;81.16
141;BME280;65;48.778;9.160;2023-03-12T00:32:06;98200.47;;;-1.22;82.54
141;BME280;65;48.778;9.160;2023-03-12T00:34:54;98191.84;;;-1.24;82.35
141;BME280;65;48.778;9.160;2023-03-12T00:37:40;98196.22;;;-1.26;82.55
141;BME280;65;48.778;9.160;2023-03-12T00:40:26;98204.00;;;-1.26;83.47
141;BME280;65;48.778;9.160;2023-03-12T00:43:11;98197.78;;;-1.14;83.93
141;BME280;65;48.778;9.160;2023-03-12T00:45:57;98189.66;;;-0.94;83.71
141;BME280;65;48.778;9.160;2023-03-12T00:48:43;98186.53;;;-0.66;82.20
141;BME280;65;48.778;9.160;2023-03-12T00:51:29;98193.53;;;-0.71;81.75
141;BME280;65;48.778;9.160;2023-03-12T00:54:15;98189.44;;;-0.82;81.96
141;BME280;65;48.778;9.160;2023-03-12T00:57:00;98193.09;;;-0.94;82.37
141;BME280;65;48.778;9.160;2023-03-12T01:00:00;98194.13;;;-1.03;82.56
141;BME280;65;48.778;9.160;2023-03-12T01:02:46;98193.22;;;-1.00;83.32
141;BME280;65;48.778;9.160;2023-03-12T01:05:32;98181.94;;;-0.98;83.77
141;BME280;65;48.778;9.160;2023-03-12T01:08:22;98191.28;;;-0.89;82.87
141;BME280;65;48.778;9.160;2023-03-12T01:11:16;98180.72;;;-0.78;82.81
141;BME280;65;48.778;9.160;2023-03-12T01:14:04;98183.00;;;-0.61;82.21
141;BME280;65;48.778;9.160;2023-03-12T01:16:50;98186.34;;;-0.55;81.21
141;BME280;65;48.778;9.160;2023-03-12T01:19:36;98188.00;;;-0.51;81.40
141;BME280;65;48.778;9.160;2023-03-12T01:22:21;98187.91;;;-0.46;81.97
141;BME280;65;48.778;9.160;2023-03-12T01:25:07;98188.78;;;-0.46;82.35
141;BME280;65;48.778;9.160;2023-03-12T01:27:53;98187.00;;;-0.44;82.03
141;BME280;65;48.778;9.160;2023-03-12T01:30:39;98191.16;;;-0.35;80.77
141;BME280;65;48.778;9.160;2023-03-12T01:33:25;98183.91;;;-0.19;80.11
141;BME280;65;48.778;9.160;2023-03-12T01:36:25;98187.13;;;-0.08;80.60
141;BME280;65;48.778;9.160;2023-03-12T01:39:11;98187.00;;;-0.02;79.37
141;BME280;65;48.778;9.160;2023-03-12T01:41:57;98184.31;;;0.04;78.44
141;BME280;65;48.778;9.160;2023-03-12T01:44:56;98188.50;;;0.10;79.49
141;BME280;65;48.778;9.160;2023-03-12T01:47:42;98196.91;;;0.22;78.44
141;BME280;65;48.778;9.160;2023-03-12T01:50:53;98187.19;;;0.30;78.81
141;BME280;65;48.778;9.160;2023-03-12T01:53:39;98186.09;;;0.41;77.57
141;BME280;65;48.778;9.160;2023-03-12T01:56:31;98191.13;;;0.47;77.69
141;BME280;65;48.778;9.160;2023-03-12T01:59:23;98186.66;;;0.53;77.34
141;BME280;65;48.778;9.160;2023-03-12T02:02:11;98191.88;;;0.52;76.75
141;BME280;65;48.778;9.160;2023-03-12T02:05:18;98194.41;;;0.55;76.89
141;BME280;65;48.778;9.160;2023-03-12T02:08:11;98189.91;;;0.63;77.49
141;BME280;65;48.778;9.160;2023-03-12T02:10:57;98179.44;;;0.66;77.68
141;BME280;65;48.778;9.160;2023-03-12T02:13:43;98186.38;;;0.66;77.42
141;BME280;65;48.778;9.160;2023-03-12T02:16:29;98188.13;;;0.65;76.25
141;BME280;65;48.778;9.160;2023-03-12T02:22:15;98184.06;;;0.53;76.80
141;BME280;65;48.778;9.160;2023-03-12T02:28:10;98176.66;;;0.37;78.30
141;BME280;65;48.778;9.160;2023-03-12T02:31:02;98175.94;;;0.30;78.14
141;BME280;65;48.778;9.160;2023-03-12T02:33:49;98176.09;;;0.22;78.63
141;BME280;65;48.778;9.160;2023-03-12T02:36:37;98172.78;;;0.16;79.39
141;BME280;65;48.778;9.160;2023-03-12T02:39:23;98177.13;;;0.15;80.36
141;BME280;65;48.778;9.160;2023-03-12T02:42:09;98178.91;;;0.13;81.19
141;BME280;65;48.778;9.160;2023-03-12T02:44:55;98179.66;;;0.18;81.48
141;BME280;65;48.778;9.160;2023-03-12T02:47:40;98183.94;;;0.21;80.65
141;BME280;65;48.778;9.160;2023-03-12T02:50:26;98176.03;;;0.25;80.68
141;BME280;65;48.778;9.160;2023-03-12T02:53:12;98182.91;;;0.28;80.56
141;BME280;65;48.778;9.160;2023-03-12T02:55:58;98181.09;;;0.31;80.75
141;BME280;65;48.778;9.160;2023-03-12T02:58:44;98178.56;;;0.28;82.29
141;BME280;65;48.778;9.160;2023-03-12T03:01:29;98179.50;;;0.26;81.58
141;BME280;65;48.778;9.160;2023-03-12T03:04:18;98166.53;;;0.24;81.47
141;BME280;65;48.778;9.160;2023-03-12T03:07:04;98172.63;;;0.23;81.85
141;BME280;65;48.778;9.160;2023-03-12T03:09:50;98171.03;;;0.16;82.02
141;BME280;65;48.778;9.160;2023-03-12T03:12:36;98175.41;;;0.14;81.98
141;BME280;65;48.778;9.160;2023-03-12T03:15:22;98171.94;;;0.15;81.91
141;BME280;65;48.778;9.160;2023-03-12T03:18:07;98166.81;;;0.12;83.31
141;BME280;65;48.778;9.160;2023-03-12T03:21:05;98162.38;;;0.17;83.83
141;BME280;65;48.778;9.160;2023-03-12T03:23:51;98152.72;;;0.22;83.48
141;BME280;65;48.778;9.160;2023-03-12T03:26:37;98139.44;;;0.35;83.77
141;BME280;65;48.778;9.160;2023-03-12T03:29:23;98144.47;;;0.42;82.33
141;BME280;65;48.778;9.160;2023-03-12T03:32:09;98148.66;;;0.48;83.63
141;BME280;65;48.778;9.160;2023-03-12T03:34:54;98146.72;;;0.56;81.58
141;BME280;65;48.778;9.160;2023-03-12T03:37:40;98144.78;;;0.66;80.80
141;BME280;65;48.778;9.160;2023-03-12T03:40:26;98146.34;;;0.73;80.93
141;BME280;65;48.778;9.160;2023-03-12T03:43:12;98146.06;;;0.83;79.96
141;BME280;65;48.778;9.160;2023-03-12T03:45:59;98138.94;;;0.91;81.03
141;BME280;65;48.778;9.160;2023-03-12T03:48:45;98160.38;;;1.00;80.51
141;BME280;65;48.778;9.160;2023-03-12T03:51:31;98147.16;;;1.09;79.06
141;BME280;65;48.778;9.160;2023-03-12T03:54:17;98154.78;;;1.15;80.04
141;BME280;65;48.778;9.160;2023-03-12T03:57:03;98156.75;;;1.39;75.18
141;BME280;65;48.778;9.160;2023-03-12T03:59:49;98147.28;;;1.37;77.39
141;BME280;65;48.778;9.160;2023-03-12T04:02:34;98147.63;;;1.24;75.07
141;BME280;65;48.778;9.160;2023-03-12T04:05:20;98145.88;;;1.25;76.48
141;BME280;65;48.778;9.160;2023-03-12T04:08:06;98140.34;;;1.37;75.66
141;BME280;65;48.778;9.160;2023-03-12T04:10:52;98125.13;;;1.53;74.40
141;BME280;65;48.778;9.160;2023-03-12T04:13:38;98135.31;;;1.61;73.54
141;BME280;65;48.778;9.160;2023-03-12T04:16:24;98130.94;;;1.63;74.20
141;BME280;65;48.778;9.160;2023-03-12T04:19:10;98132.09;;;1.52;76.10
141;BME280;65;48.778;9.160;2023-03-12T04:21:55;98133.06;;;1.48;77.26
141;BME280;65;48.778;9.160;2023-03-12T04:24:41;98131.19;;;1.53;77.90
141;BME280;65;48.778;9.160;2023-03-12T04:27:27;98135.50;;;1.54;78.34
141;BME280;65;48.778;9.160;2023-03-12T04:30:13;98132.25;;;1.46;76.61
141;BME280;65;48.778;9.160;2023-03-12T04:32:59;98130.13;;;1.61;75.51
141;BME280;65;48.778;9.160;2023-03-12T04:35:52;98137.44;;;1.48;77.13
141;BME280;65;48.778;9.160;2023-03-12T04:38:38;98143.44;;;1.50;76.13
141;BME280;65;48.778;9.160;2023-03-12T04:41:24;98142.50;;;1.52;76.31
141;BME280;65;48.778;9.160;2023-03-12T04:44:10;98134.88;;;1.46;77.96
141;BME280;65;48.778;9.160;2023-03-12T04:46:56;98143.44;;;1.50;76.26
141;BME280;65;48.778;9.160;2023-03-12T04:49:42;98134.00;;;1.46;76.05
141;BME280;65;48.778;9.160;2023-03-12T04:52:27;98140.81;;;1.51;76.67
141;BME280;65;48.778;9.160;2023-03-12T04:55:13;98132.19;;;1.49;77.42
141;BME280;65;48.778;9.160;2023-03-12T04:57:59;98130.56;;;1.45;77.35
141;BME280;65;48.778;9.160;2023-03-12T05:00:46;98133.78;;;1.53;77.74
141;BME280;65;48.778;9.160;2023-03-12T05:03:32;98131.88;;;1.60;78.10
141;BME280;65;48.778;9.160;2023-03-12T05:06:18;98129.91;;;1.68;78.03
141;BME280;65;48.778;9.160;2023-03-12T05:09:04;98133.84;;;1.83;76.84
141;BME280;65;48.778;9.160;2023-03-12T05:11:50;98136.78;;;2.00;75.68
141;BME280;65;48.778;9.160;2023-03-12T05:14:36;98119.59;;;1.95;76.98
141;BME280;65;48.778;9.160;2023-03-12T05:17:23;98124.41;;;1.79;77.50
141;BME280;65;48.778;9.160;2023-03-12T05:20:10;98128.69;;;1.81;76.93
141;BME280;65;48.778;9.160;2023-03-12T05:22:56;98122.47;;;1.85;77.74
141;BME280;65;48.778;9.160;2023-03-12T05:25:42;98119.97;;;1.82;77.80
141;BME280;65;48.778;9.160;2023-03-12T05:28:28;98120.78;;;1.84;76.90
141;BME280;65;48.778;9.160;2023-03-12T05:31:14;98119.44;;;1.99;77.33
141;BME280;65;48.778;9.160;2023-03-12T05:34:02;98123.56;;;2.06;79.24
141;BME280;65;48.778;9.160;2023-03-12T05:36:48;98122.59;;;2.10;78.81
141;BME280;65;48.778;9.160;2023-03-12T05:39:34;98128.59;;;2.12;80.82
141;BME280;65;48.778;9.160;2023-03-12T05:42:20;98126.81;;;2.14;81.41
141;BME280;65;48.778;9.160;2023-03-12T05:45:06;98129.38;;;2.16;83.69
141;BME280;65;48.778;9.160;2023-03-12T05:47:52;98142.44;;;2.14;83.31
141;BME280;65;48.778;9.160;2023-03-12T05:50:37;98131.03;;;2.18;84.09
141;BME280;65;48.778;9.160;2023-03-12T05:53:23;98144.88;;;2.20;84.38
141;BME280;65;48.778;9.160;2023-03-12T05:56:14;98138.88;;;2.17;84.09
141;BME280;65;48.778;9.160;2023-03-12T05:59:00;98140.69;;;2.15;85.31
141;BME280;65;48.778;9.160;2023-03-12T06:01:46;98149.38;;;2.15;86.56
141;BME280;65;48.778;9.160;2023-03-12T06:04:32;98149.19;;;2.21;87.23
141;BME280;65;48.778;9.160;2023-03-12T06:07:17;98150.03;;;2.22;91.14
141;BME280;65;48.778;9.160;2023-03-12T06:10:03;98151.78;;;2.21;92.52
141;BME280;65;48.778;9.160;2023-03-12T06:12:49;98142.53;;;2.11;94.66
141;BME280;65;48.778;9.160;2023-03-12T06:15:35;98150.06;;;1.93;98.76
141;BME280;65;48.778;9.160;2023-03-12T06:18:21;98137.88;;;1.93;99.08
141;BME280;65;48.778;9.160;2023-03-12T06:21:18;98143.38;;;1.84;98.92
141;BME280;65;48.778;9.160;2023-03-12T06:24:04;98139.78;;;1.88;100.00
141;BME280;65;48.778;9.160;2023-03-12T06:26:50;98136.63;;;1.77;100.00
141;BME280;65;48.778;9.160;2023-03-12T06:29:36;98127.63;;;1.87;100.00
141;BME280;65;48.778;9.160;2023-03-12T06:32:40;98139.78;;;1.88;100.00
141;BME280;65;48.778;9.160;2023-03-12T06:35:25;98133.44;;;1.97;100.00
141;BME280;65;48.778;9.160;2023-03-12T06:38:11;98126.31;;;2.02;100.00
141;BME280;65;48.778;9.160;2023-03-12T06:41:08;98130.31;;;2.13;98.73
141;BME280;65;48.778;9.160;2023-03-12T06:47:36;98127.56;;;2.18;100.00
141;BME280;65;48.778;9.160;2023-03-12T06:50:22;98121.69;;;2.11;100.00
141;BME280;65;48.778;9.160;2023-03-12T06:53:08;98124.16;;;2.16;100.00
141;BME280;65;48.778;9.160;2023-03-12T06:55:53;98124.56;;;2.30;100.00
141;BME280;65;48.778;9.160;2023-03-12T06:58:39;98127.19;;;2.30;100.00
141;BME280;65;48.778;9.160;2023-03-12T07:01:25;98131.13;;;2.43;100.00
141;BME280;65;48.778;9.160;2023-03-12T07:04:11;98129.69;;;2.35;100.00
141;BME280;65;48.778;9.160;2023-03-12T07:06:57;98131.44;;;2.34;100.00
141;BME280;65;48.778;9.160;2023-03-12T07:09:42;98129.56;;;2.38;100.00
141;BME280;65;48.778;9.160;2023-03-12T07:12:28;98127.69;;;2.43;100.00
141;BME280;65;48.778;9.160;2023-03-12T07:15:14;98129.19;;;2.50;100.00
141;BME280;65;48.778;9.160;2023-03-12T07:18:03;98130.38;;;2.40;100.00
141;BME280;65;48.778;9.160;2023-03-12T07:21:02;98131.91;;;2.47;100.00
141;BME280;65;48.778;9.160;2023-03-12T07:23:49;98138.66;;;2.52;100.00
141;BME280;65;48.778;9.160;2023-03-12T07:26:34;98136.16;;;2.49;100.00
141;BME280;65;48.778;9.160;2023-03-12T07:29:20;98145.69;;;2.50;100.00
141;BME280;65;48.778;9.160;2023-03-12T07:32:24;98144.53;;;2.59;100.00
141;BME280;65;48.778;9.160;2023-03-12T07:35:10;98143.84;;;2.54;100.00
141;BME280;65;48.778;9.160;2023-03-12T07:37:56;98151.84;;;2.48;100.00
141;BME280;65;48.778;9.160;2023-03-12T07:40:41;98142.19;;;2.51;100.00
141;BME280;65;48.778;9.160;2023-03-12T07:43:27;98142.53;;;2.67;100.00
141;BME280;65;48.778;9.160;2023-03-12T07:46:13;98134.00;;;2.89;100.00
141;BME280;65;48.778;9.160;2023-03-12T07:48:59;98133.13;;;3.14;100.00
141;BME280;65;48.778;9.160;2023-03-12T07:51:45;98127.66;;;3.22;100.00
141;BME280;65;48.778;9.160;2023-03-12T07:54:31;98132.53;;;3.31;100.00
141;BME280;65;48.778;9.160;2023-03-12T07:57:16;98128.75;;;3.40;100.00
141;BME280;65;48.778;9.160;2023-03-12T08:00:03;98132.53;;;3.31;100.00
141;BME280;65;48.778;9.160;2023-03-12T08:02:51;98130.91;;;3.04;100.00
141;BME280;65;48.778;9.160;2023-03-12T08:05:37;98135.09;;;3.08;100.00
141;BME280;65;48.778;9.160;2023-03-12T08:08:23;98139.84;;;3.22;100.00
141;BME280;65;48.778;9.160;2023-03-12T08:11:09;98136.00;;;3.57;100.00
141;BME280;65;48.778;9.160;2023-03-12T08:13:55;98136.59;;;3.65;100.00
141;BME280;65;48.778;9.160;2023-03-12T08:16:40;98129.59;;;3.40;100.00
141;BME280;65;48.778;9.160;2023-03-12T08:19:27;98133.22;;;3.61;100.00
141;BME280;65;48.778;9.160;2023-03-12T08:22:12;98138.47;;;3.85;100.00
141;BME280;65;48.778;9.160;2023-03-12T08:24:58;98141.97;;;3.35;100.00
141;BME280;65;48.778;9.160;2023-03-12T08:27:44;98135.69;;;3.66;100.00
141;BME280;65;48.778;9.160;2023-03-12T08:30:30;98146.31;;;3.85;100.00
141;BME280;65;48.778;9.160;2023-03-12T08:33:16;98140.09;;;3.87;100.00
141;BME280;65;48.778;9.160;2023-03-12T08:36:02;98135.50;;;3.70;100.00
141;BME280;65;48.778;9.160;2023-03-12T08:38:47;98148.34;;;3.76;100.00
141;BME280;65;48.778;9.160;2023-03-12T08:41:33;98155.03;;;4.08;100.00
141;BME280;65;48.778;9.160;2023-03-12T08:44:19;98147.25;;;4.29;100.00
141;BME280;65;48.778;9.160;2023-03-12T08:47:04;98145.66;;;4.70;100.00
141;BME280;65;48.778;9.160;2023-03-12T08:49:50;98149.81;;;4.96;100.00
141;BME280;65;48.778;9.160;2023-03-12T08:52:36;98146.41;;;4.94;100.00
141;BME280;65;48.778;9.160;2023-03-12T08:55:21;98149.69;;;5.19;100.00
141;BME280;65;48.778;9.160;2023-03-12T08:58:07;98148.91;;;5.17;100.00
141;BME280;65;48.778;9.160;2023-03-12T09:00:54;98142.59;;;4.81;100.00
141;BME280;65;48.778;9.160;2023-03-12T09:03:40;98137.13;;;5.07;100.00
141;BME280;65;48.778;9.160;2023-03-12T09:06:25;98141.53;;;4.85;100.00
141;BME280;65;48.778;9.160;2023-03-12T09:09:11;98142.47;;;4.84;100.00
141;BME280;65;48.778;9.160;2023-03-12T09:11:57;98142.28;;;4.88;100.00
141;BME280;65;48.778;9.160;2023-03-12T09:14:43;98139.63;;;5.30;100.00
141;BME280;65;48.778;9.160;2023-03-12T09:17:28;98131.19;;;5.44;100.00
141;BME280;65;48.778;9.160;2023-03-12T09:20:15;98136.13;;;5.70;100.00
141;BME280;65;48.778;9.160;2023-03-12T09:23:00;98138.97;;;6.05;100.00
141;BME280;65;48.778;9.160;2023-03-12T09:25:46;98137.13;;;6.26;100.00
141;BME280;65;48.778;9.160;2023-03-12T09:28:32;98142.94;;;6.14;100.00
141;BME280;65;48.778;9.160;2023-03-12T09:31:18;98152.44;;;6.35;100.00
141;BME280;65;48.778;9.160;2023-03-12T09:34:04;98148.97;;;6.53;100.00
141;BME280;65;48.778;9.160;2023-03-12T09:36:50;98150.13;;;6.48;100.00
141;BME280;65;48.778;9.160;2023-03-12T09:39:36;98144.78;;;6.49;100.00
141;BME280;65;48.778;9.160;2023-03-12T09:42:33;98150.16;;;6.65;100.00
141;BME280;65;48.778;9.160;2023-03-12T09:45:26;98148.53;;;6.98;100.00
141;BME280;65;48.778;9.160;2023-03-12T09:48:15;98149.91;;;7.40;100.00
141;BME280;65;48.778;9.160;2023-03-12T09:51:11;98145.34;;;7.44;100.00
141;BME280;65;48.778;9.160;2023-03-12T09:54:02;98148.03;;;7.77;100.00
141;BME280;65;48.778;9.160;2023-03-12T09:56:50;98143.78;;;7.74;100.00
141;BME280;65;48.778;9.160;2023-03-12T09:59:36;98145.34;;;7.94;100.00
141;BME280;65;48.778;9.160;2023-03-12T10:02:41;98149.97;;;8.55;100.00
141;BME280;65;48.778;9.160;2023-03-12T10:15:48;98148.22;;;9.61;96.92
141;BME280;65;48.778;9.160;2023-03-12T10:25:47;98160.00;;;10.96;89.75
141;BME280;65;48.778;9.160;2023-03-12T10:28:12;98149.00;;;10.63;92.24
141;BME280;65;48.778;9.160;2023-03-12T10:31:03;98146.69;;;10.71;91.08
141;BME280;65;48.778;9.160;2023-03-12T10:33:58;98151.03;;;10.72;89.14
141;BME280;65;48.778;9.160;2023-03-12T10:36:44;98155.28;;;10.74;90.33
141;BME280;65;48.778;9.160;2023-03-12T10:39:30;98162.84;;;11.07;87.68
141;BME280;65;48.778;9.160;2023-03-12T10:42:20;98169.63;;;11.12;87.05
141;BME280;65;48.778;9.160;2023-03-12T10:47:59;98179.19;;;10.59;89.22
141;BME280;65;48.778;9.160;2023-03-12T10:51:07;98181.28;;;10.25;93.08
141;BME280;65;48.778;9.160;2023-03-12T10:53:53;98181.19;;;9.98;95.89
141;BME280;65;48.778;9.160;2023-03-12T10:56:49;98182.16;;;9.81;98.88
141;BME280;65;48.778;9.160;2023-03-12T10:59:37;98195.25;;;9.69;100.00
141;BME280;65;48.778;9.160;2023-03-12T11:02:30;98197.63;;;9.73;100.00
141;BME280;65;48.778;9.160;2023-03-12T11:05:23;98199.88;;;9.79;100.00
141;BME280;65;48.778;9.160;2023-03-12T11:08:30;98201.25;;;9.87;100.00
141;BME280;65;48.778;9.160;2023-03-12T14:41:21;98152.22;;;12.74;75.24
141;BME280;65;48.778;9.160;2023-03-12T14:44:25;98151.53;;;14.12;67.62
141;BME280;65;48.778;9.160;2023-03-12T14:47:16;98141.28;;;14.64;64.12
141;BME280;65;48.778;9.160;2023-03-12T14:50:02;98137.03;;;14.16;63.32
141;BME280;65;48.778;9.160;2023-03-12T14:52:48;98137.53;;;14.44;60.48
141;BME280;65;48.778;9.160;2023-03-12T14:55:34;98147.19;;;14.00;62.58
141;BME280;65;48.778;9.160;2023-03-12T14:58:19;98144.09;;;14.51;59.02
141;BME280;65;48.778;9.160;2023-03-12T15:01:06;98137.25;;;13.91;59.53
141;BME280;65;48.778;9.160;2023-03-12T15:04:05;98141.13;;;13.98;59.81
141;BME280;65;48.778;9.160;2023-03-12T15:06:54;98153.72;;;14.18;58.86
141;BME280;65;48.778;9.160;2023-03-12T15:09:43;98149.59;;;14.25;58.52
141;BME280;65;48.778;9.160;2023-03-12T15:12:35;98158.06;;;14.19;60.08
141;BME280;65;48.778;9.160;2023-03-12T15:18:27;98154.34;;;14.55;58.90
141;BME280;65;48.778;9.160;2023-03-12T15:21:13;98154.69;;;14.17;59.41
141;BME280;65;48.778;9.160;2023-03-12T15:23:59;98158.75;;;13.88;61.30
141;BME280;65;48.778;9.160;2023-03-12T15:26:45;98154.44;;;13.28;63.04
141;BME280;65;48.778;9.160;2023-03-12T15:29:31;98146.75;;;12.52;66.48
141;BME280;65;48.778;9.160;2023-03-12T15:32:18;98147.19;;;12.46;67.60
141;BME280;65;48.778;9.160;2023-03-12T15:35:12;98148.78;;;12.48;67.20
141;BME280;65;48.778;9.160;2023-03-12T15:37:57;98141.63;;;12.25;68.06
141;BME280;65;48.778;9.160;2023-03-12T15:40:51;98145.94;;;12.13;67.76
141;BME280;65;48.778;9.160;2023-03-12T15:43:42;98141.59;;;12.12;67.37
141;BME280;65;48.778;9.160;2023-03-12T15:46:28;98148.41;;;12.03;67.45
141;BME280;65;48.778;9.160;2023-03-12T15:49:32;98150.31;;;11.89;69.04
141;BME280;65;48.778;9.160;2023-03-12T15:57:59;98150.31;;;11.89;68.60
141;BME280;65;48.778;9.160;2023-03-12T16:00:45;98154.22;;;11.83;69.91
141;BME280;65;48.778;9.160;2023-03-12T16:03:31;98144.38;;;11.85;69.36
141;BME280;65;48.778;9.160;2023-03-12T16:06:20;98149.56;;;11.87;70.15
141;BME280;65;48.778;9.160;2023-03-12T16:09:11;98147.25;;;11.82;69.13
141;BME280;65;48.778;9.160;2023-03-12T16:11:59;98137.56;;;11.68;70.70
141;BME280;65;48.778;9.160;2023-03-12T16:14:45;98141.59;;;11.74;69.72
141;BME280;65;48.778;9.160;2023-03-12T16:17:31;98140.22;;;11.68;70.12
141;BME280;65;48.778;9.160;2023-03-12T16:20:17;98138.31;;;11.70;68.40
141;BME280;65;48.778;9.160;2023-03-12T16:23:04;98136.09;;;11.64;68.78
141;BME280;65;48.778;9.160;2023-03-12T16:25:51;98139.38;;;11.68;68.47
141;BME280;65;48.778;9.160;2023-03-12T16:28:38;98139.06;;;11.60;67.53
141;BME280;65;48.778;9.160;2023-03-12T16:31:24;98135.00;;;11.54;67.52
141;BME280;65;48.778;9.160;2023-03-12T16:34:11;98129.16;;;11.36;69.29
141;BME280;65;48.778;9.160;2023-03-12T16:36:56;98122.59;;;11.42;67.60
141;BME280;65;48.778;9.160;2023-03-12T16:39:42;98139.22;;;11.44;67.88
141;BME280;65;48.778;9.160;2023-03-12T16:42:30;98143.31;;;11.23;70.40
141;BME280;65;48.778;9.160;2023-03-12T16:45:18;98141.56;;;11.09;70.13
141;BME280;65;48.778;9.160;2023-03-12T16:48:05;98130.25;;;11.07;70.13
141;BME280;65;48.778;9.160;2023-03-12T16:50:54;98136.38;;;11.07;68.75
141;BME280;65;48.778;9.160;2023-03-12T16:53:40;98138.72;;;11.12;69.90
141;BME280;65;48.778;9.160;2023-03-12T16:56:27;98142.41;;;11.09;69.77
141;BME280;65;48.778;9.160;2023-03-12T16:59:30;98138.94;;;11.09;68.76
141;BME280;65;48.778;9.160;2023-03-12T17:02:17;98136.69;;;11.03;69.82
141;BME280;65;48.778;9.160;2023-03-12T17:05:04;98145.81;;;10.85;70.42
141;BME280;65;48.778;9.160;2023-03-12T17:07:49;98140.66;;;10.69;70.81
141;BME280;65;48.778;9.160;2023-03-12T17:10:35;98146.34;;;10.63;71.19
141;BME280;65;48.778;9.160;2023-03-12T17:13:24;98144.50;;;10.51;72.14
141;BME280;65;48.778;9.160;2023-03-12T17:16:11;98150.06;;;10.32;73.51
141;BME280;65;48.778;9.160;2023-03-12T17:18:56;98143.56;;;10.23;74.08
141;BME280;65;48.778;9.160;2023-03-12T17:21:43;98146.66;;;10.15;73.53
141;BME280;65;48.778;9.160;2023-03-12T17:24:28;98148.91;;;10.07;74.61
141;BME280;65;48.778;9.160;2023-03-12T17:27:14;98154.09;;;10.09;74.79
141;BME280;65;48.778;9.160;2023-03-12T17:30:00;98149.78;;;10.08;75.15
141;BME280;65;48.778;9.160;2023-03-12T17:32:46;98159.09;;;10.13;74.92
141;BME280;65;48.778;9.160;2023-03-12T17:35:33;98168.28;;;10.22;73.81
141;BME280;65;48.778;9.160;2023-03-12T17:38:19;98158.72;;;10.20;73.99
141;BME280;65;48.778;9.160;2023-03-12T17:41:05;98165.53;;;10.09;74.22
141;BME280;65;48.778;9.160;2023-03-12T17:43:53;98165.72;;;9.92;74.79
141;BME280;65;48.778;9.160;2023-03-12T17:46:39;98158.81;;;9.90;74.57
141;BME280;65;48.778;9.160;2023-03-12T17:49:26;98158.78;;;9.61;76.08
141;BME280;65;48.778;9.160;2023-03-12T17:52:12;98166.09;;;9.42;76.91
141;BME280;65;48.778;9.160;2023-03-12T17:55:07;98176.75;;;9.25;78.79
141;BME280;65;48.778;9.160;2023-03-12T17:57:53;98178.75;;;9.05;79.98
141;BME280;65;48.778;9.160;2023-03-12T18:00:39;98179.78;;;8.87;80.28
141;BME280;65;48.778;9.160;2023-03-12T18:03:24;98182.19;;;8.76;81.14
141;BME280;65;48.778;9.160;2023-03-12T18:06:10;98172.66;;;8.73;81.73
141;BME280;65;48.778;9.160;2023-03-12T18:08:57;98178.63;;;8.77;82.63
141;BME280;65;48.778;9.160;2023-03-12T18:11:44;98182.34;;;8.73;82.81
141;BME280;65;48.778;9.160;2023-03-12T18:14:30;98180.84;;;8.69;82.56
141;BME280;65;48.778;9.160;2023-03-12T18:17:16;98176.63;;;8.65;83.83
141;BME280;65;48.778;9.160;2023-03-12T18:20:02;98174.34;;;8.59;83.87
141;BME280;65;48.778;9.160;2023-03-12T18:22:54;98181.66;;;8.53;84.24
141;BME280;65;48.778;9.160;2023-03-12T18:25:40;98183.69;;;8.48;85.17
141;BME280;65;48.778;9.160;2023-03-12T18:28:26;98187.03;;;8.68;84.78
141;BME280;65;48.778;9.160;2023-03-12T18:31:11;98196.97;;;8.78;84.24
141;BME280;65;48.778;9.160;2023-03-12T18:33:57;98200.38;;;8.80;83.95
141;BME280;65;48.778;9.160;2023-03-12T18:36:43;98204.28;;;8.89;83.83
141;BME280;65;48.778;9.160;2023-03-12T18:39:29;98209.03;;;8.98;82.87
141;BME280;65;48.778;9.160;2023-03-12T18:42:14;98204.75;;;9.11;80.69
141;BME280;65;48.778;9.160;2023-03-12T18:45:00;98210.69;;;9.31;80.19
141;BME280;65;48.778;9.160;2023-03-12T18:47:46;98207.41;;;9.27;80.98
141;BME280;65;48.778;9.160;2023-03-12T18:50:34;98219.03;;;9.23;81.71
141;BME280;65;48.778;9.160;2023-03-12T18:53:21;98212.41;;;9.16;81.71
141;BME280;65;48.778;9.160;2023-03-12T18:56:08;98206.63;;;9.09;82.73
141;BME280;65;48.778;9.160;2023-03-12T18:58:54;98209.69;;;9.02;83.24
141;BME280;65;48.778;9.160;2023-03-12T19:01:40;98211.94;;;8.94;83.07
141;BME280;65;48.778;9.160;2023-03-12T19:04:26;98200.19;;;8.83;83.42
141;BME280;65;48.778;9.160;2023-03-12T19:07:12;98202.50;;;8.74;85.19
141;BME280;65;48.778;9.160;2023-03-12T19:09:58;98201.44;;;8.61;84.94
141;BME280;65;48.778;9.160;2023-03-12T19:12:45;98205.09;;;8.42;86.91
141;BME280;65;48.778;9.160;2023-03-12T19:15:31;98200.63;;;8.27;87.94
141;BME280;65;48.778;9.160;2023-03-12T19:18:17;98201.97;;;8.18;89.20
141;BME280;65;48.778;9.160;2023-03-12T19:21:05;98209.78;;;8.20;88.59
141;BME280;65;48.778;9.160;2023-03-12T19:23:51;98219.06;;;8.27;87.65
141;BME280;65;48.778;9.160;2023-03-12T19:26:38;98224.47;;;8.41;85.75
141;BME280;65;48.778;9.160;2023-03-12T19:29:24;98214.78;;;8.57;86.13
141;BME280;65;48.778;9.160;2023-03-12T19:32:10;98218.09;;;8.45;87.29
141;BME280;65;48.778;9.160;2023-03-12T19:34:55;98214.88;;;8.23;87.76
141;BME280;65;48.778;9.160;2023-03-12T19:37:41;98211.44;;;8.05;88.21
141;BME280;65;48.778;9.160;2023-03-12T19:40:27;98212.31;;;7.88;89.77
141;BME280;65;48.778;9.160;2023-03-12T19:43:13;98207.84;;;7.73;91.33
141;BME280;65;48.778;9.160;2023-03-12T19:45:59;98216.75;;;7.71;91.28
141;BME280;65;48.778;9.160;2023-03-12T19:48:45;98230.38;;;7.61;92.13
141;BME280;65;48.778;9.160;2023-03-12T19:52:04;98229.69;;;7.58;93.42
141;BME280;65;48.778;9.160;2023-03-12T19:54:50;98229.91;;;7.53;94.19
141;BME280;65;48.778;9.160;2023-03-12T19:57:36;98231.38;;;7.59;93.56
141;BME280;65;48.778;9.160;2023-03-12T20:00:22;98226.19;;;7.57;93.44
141;BME280;65;48.778;9.160;2023-03-12T20:03:08;98224.41;;;7.58;93.28
141;BME280;65;48.778;9.160;2023-03-12T20:05:54;98225.88;;;7.64;92.92